createdAt,value
2019-06-01T00:01:44.623Z,16.58
2019-06-01T00:04:13.276Z,16.59
2019-06-01T00:06:42.822Z,16.56
2019-06-01T00:09:11.458Z,16.55
2019-06-01T00:11:41.152Z,16.54
2019-06-01T00:14:09.859Z,16.49
2019-06-01T00:16:39.814Z,16.45
2019-06-01T00:19:08.494Z,16.47
2019-06-01T00:21:37.027Z,16.46
2019-06-01T00:24:05.609Z,16.39
2019-06-01T00:26:34.129Z,16.39
2019-06-01T00:29:02.653Z,16.37
2019-06-01T00:31:31.156Z,16.40
2019-06-01T00:33:59.689Z,16.30
2019-06-01T00:36:28.253Z,16.22
2019-06-01T00:38:56.781Z,16.11
2019-06-01T00:41:25.365Z,16.07
2019-06-01T00:43:53.924Z,16.03
2019-06-01T00:46:22.473Z,16.08
2019-06-01T00:48:52.128Z,16.16
2019-06-01T00:51:20.770Z,16.15
2019-06-01T00:53:49.678Z,16.10
2019-06-01T00:56:18.487Z,15.97
2019-06-01T00:58:47.864Z,15.98
2019-06-01T01:01:16.463Z,15.98
2019-06-01T01:03:46.060Z,15.92
2019-06-01T01:06:14.656Z,15.89
2019-06-01T01:08:44.686Z,15.90
2019-06-01T01:11:13.432Z,15.90
2019-06-01T01:13:41.992Z,15.93
2019-06-01T01:16:10.523Z,16.03
2019-06-01T01:18:39.092Z,15.97
2019-06-01T01:21:07.899Z,15.96
2019-06-01T01:23:36.494Z,15.92
2019-06-01T01:26:05.069Z,15.94
2019-06-01T01:28:33.679Z,15.92
2019-06-01T01:31:12.836Z,15.93
2019-06-01T01:33:32.509Z,16.02
2019-06-01T01:36:01.086Z,16.00
2019-06-01T01:38:29.634Z,15.93
2019-06-01T01:40:59.393Z,15.97
2019-06-01T01:43:28.246Z,15.92
2019-06-01T01:45:56.956Z,15.95
2019-06-01T01:48:25.492Z,15.87
2019-06-01T01:50:54.270Z,15.85
2019-06-01T01:53:22.811Z,15.81
2019-06-01T01:55:51.319Z,15.79
2019-06-01T01:58:19.815Z,15.82
2019-06-01T02:00:48.618Z,15.82
2019-06-01T02:03:17.125Z,15.77
2019-06-01T02:05:45.728Z,15.74
2019-06-01T02:08:14.283Z,15.71
2019-06-01T02:10:42.861Z,15.66
2019-06-01T02:13:11.349Z,15.59
2019-06-01T02:15:41.559Z,15.65
2019-06-01T02:18:10.137Z,15.66
2019-06-01T02:20:38.840Z,15.64
2019-06-01T02:23:07.342Z,15.67
2019-06-01T02:25:35.818Z,15.67
2019-06-01T02:28:05.470Z,15.60
2019-06-01T02:30:34.105Z,15.59
2019-06-01T02:33:04.632Z,15.58
2019-06-01T02:35:32.852Z,15.55
2019-06-01T02:38:03.144Z,15.53
2019-06-01T02:40:31.600Z,15.53
2019-06-01T02:43:01.382Z,15.53
2019-06-01T02:45:30.729Z,15.52
2019-06-01T02:47:59.500Z,15.51
2019-06-01T02:50:28.184Z,15.43
2019-06-01T02:52:57.292Z,15.46
2019-06-01T02:55:25.880Z,15.45
2019-06-01T02:57:54.542Z,15.42
2019-06-01T03:00:47.116Z,15.37
2019-06-01T03:03:15.673Z,15.32
2019-06-01T03:05:44.705Z,15.24
2019-06-01T03:08:13.940Z,15.24
2019-06-01T03:10:42.505Z,15.23
2019-06-01T03:13:11.006Z,15.21
2019-06-01T03:15:39.656Z,15.12
2019-06-01T03:18:08.164Z,15.15
2019-06-01T03:20:36.941Z,15.16
2019-06-01T03:23:05.767Z,15.08
2019-06-01T03:25:34.251Z,15.15
2019-06-01T03:28:04.145Z,15.16
2019-06-01T03:30:45.078Z,15.12
2019-06-01T03:33:10.989Z,15.08
2019-06-01T03:35:39.567Z,14.96
2019-06-01T03:38:09.200Z,15.03
2019-06-01T03:40:37.845Z,15.00
2019-06-01T03:43:07.239Z,15.00
2019-06-01T03:45:35.869Z,15.00
2019-06-01T03:48:04.670Z,15.03
2019-06-01T03:50:33.205Z,15.07
2019-06-01T03:53:01.811Z,15.06
2019-06-01T03:55:30.359Z,15.02
2019-06-01T03:57:58.873Z,15.05
2019-06-01T04:00:27.431Z,15.14
2019-06-01T04:02:55.946Z,15.14
2019-06-01T04:05:24.423Z,15.15
2019-06-01T04:07:53.021Z,15.13
2019-06-01T04:10:21.593Z,15.13
2019-06-01T04:12:50.170Z,15.10
2019-06-01T04:15:18.727Z,15.10
2019-06-01T04:17:47.302Z,15.13
2019-06-01T04:20:15.818Z,15.13
2019-06-01T04:22:44.294Z,15.16
2019-06-01T04:25:12.823Z,15.13
2019-06-01T04:27:41.401Z,15.16
2019-06-01T04:30:09.912Z,15.24
2019-06-01T04:32:49.446Z,15.25
2019-06-01T04:35:09.078Z,15.27
2019-06-01T04:37:37.736Z,15.32
2019-06-01T04:40:07.936Z,15.35
2019-06-01T04:42:36.486Z,15.33
2019-06-01T04:45:07.653Z,15.35
2019-06-01T04:47:37.074Z,15.42
2019-06-01T04:50:08.705Z,15.48
2019-06-01T04:52:37.305Z,15.41
2019-06-01T04:55:08.974Z,15.49
2019-06-01T04:57:37.635Z,15.59
2019-06-01T05:00:15.388Z,15.64
2019-06-01T05:02:37.110Z,15.72
2019-06-01T05:05:07.320Z,15.85
2019-06-01T05:07:35.854Z,15.93
2019-06-01T05:10:07.527Z,16.00
2019-06-01T05:12:36.153Z,16.05
2019-06-01T05:15:07.989Z,16.13
2019-06-01T05:17:36.522Z,16.20
2019-06-01T05:20:08.364Z,16.22
2019-06-01T05:22:36.953Z,16.27
2019-06-01T05:25:08.999Z,16.36
2019-06-01T05:27:37.705Z,16.48
2019-06-01T05:30:07.344Z,16.44
2019-06-01T05:32:35.934Z,16.51
2019-06-01T05:35:07.595Z,16.62
2019-06-01T05:37:36.340Z,16.77
2019-06-01T05:40:10.691Z,16.87
2019-06-01T05:42:39.253Z,16.99
2019-06-01T05:45:09.110Z,17.09
2019-06-01T05:47:37.883Z,17.15
2019-06-01T05:50:07.539Z,17.25
2019-06-01T05:52:36.202Z,17.31
2019-06-01T05:55:06.459Z,17.41
2019-06-01T05:57:34.969Z,17.52
2019-06-01T06:00:06.260Z,17.56
2019-06-01T06:02:34.845Z,17.55
2019-06-01T06:05:04.441Z,17.70
2019-06-01T06:07:32.994Z,17.77
2019-06-01T06:10:01.602Z,17.75
2019-06-01T06:12:30.163Z,17.69
2019-06-01T06:14:58.677Z,17.76
2019-06-01T06:17:27.182Z,17.83
2019-06-01T06:19:55.707Z,17.95
2019-06-01T06:22:24.227Z,18.00
2019-06-01T06:24:52.865Z,18.00
2019-06-01T06:27:21.361Z,18.09
2019-06-01T06:29:49.870Z,18.13
2019-06-01T06:32:19.226Z,18.11
2019-06-01T06:34:47.826Z,18.13
2019-06-01T06:37:16.568Z,18.31
2019-06-01T06:39:46.222Z,18.26
2019-06-01T06:42:14.765Z,18.19
2019-06-01T06:44:43.269Z,18.31
2019-06-01T06:47:11.876Z,18.35
2019-06-01T06:49:40.466Z,18.47
2019-06-01T06:52:09.076Z,18.62
2019-06-01T06:54:37.692Z,18.78
2019-06-01T06:57:06.232Z,18.94
2019-06-01T06:59:34.808Z,18.96
2019-06-01T07:02:03.365Z,19.06
2019-06-01T07:04:31.866Z,19.25
2019-06-01T07:07:00.337Z,19.50
2019-06-01T07:09:28.961Z,19.45
2019-06-01T07:11:57.519Z,19.51
2019-06-01T07:14:26.060Z,19.61
2019-06-01T07:16:54.681Z,19.74
2019-06-01T07:19:23.728Z,19.94
2019-06-01T07:21:52.333Z,20.12
2019-06-01T07:24:21.776Z,20.04
2019-06-01T07:26:50.295Z,20.25
2019-06-01T07:29:19.954Z,20.45
2019-06-01T07:31:48.555Z,20.47
2019-06-01T07:34:30.997Z,20.57
2019-06-01T07:36:47.287Z,20.56
2019-06-01T07:39:15.851Z,20.67
2019-06-01T07:41:44.362Z,20.80
2019-06-01T07:44:12.920Z,20.96
2019-06-01T07:46:41.572Z,21.02
2019-06-01T07:49:10.050Z,21.04
2019-06-01T07:51:38.524Z,21.18
2019-06-01T07:54:07.050Z,21.29
2019-06-01T07:56:35.525Z,21.42
2019-06-01T07:59:04.053Z,21.42
2019-06-01T08:01:32.969Z,21.42
2019-06-01T08:04:01.657Z,21.62
2019-06-01T08:06:32.501Z,21.73
2019-06-01T08:09:00.467Z,21.78
2019-06-01T08:11:32.427Z,21.81
2019-06-01T08:13:59.314Z,21.87
2019-06-01T08:16:27.965Z,21.95
2019-06-01T08:18:56.512Z,22.08
2019-06-01T08:21:26.035Z,22.10
2019-06-01T08:23:54.673Z,21.99
2019-06-01T08:26:24.429Z,22.24
2019-06-01T08:28:52.995Z,22.26
2019-06-01T08:31:22.552Z,22.42
2019-06-01T08:33:51.247Z,22.58
2019-06-01T08:36:19.840Z,22.67
2019-06-01T08:38:48.427Z,22.53
2019-06-01T08:41:16.910Z,22.51
2019-06-01T08:43:45.460Z,22.68
2019-06-01T08:46:14.001Z,22.77
2019-06-01T08:48:42.489Z,22.72
2019-06-01T08:51:11.423Z,22.70
2019-06-01T08:53:39.977Z,22.78
2019-06-01T08:56:08.575Z,22.71
2019-06-01T08:58:37.201Z,22.82
2019-06-01T09:01:05.749Z,23.07
2019-06-01T09:03:39.935Z,23.15
2019-06-01T09:06:04.578Z,23.28
2019-06-01T09:08:33.306Z,23.61
2019-06-01T09:11:01.833Z,23.62
2019-06-01T09:13:31.278Z,23.75
2019-06-01T09:15:59.893Z,23.69
2019-06-01T09:18:29.824Z,23.55
2019-06-01T09:20:58.428Z,23.42
2019-06-01T09:23:27.597Z,23.61
2019-06-01T09:25:56.178Z,23.62
2019-06-01T09:28:25.683Z,23.76
2019-06-01T09:30:54.267Z,23.71
2019-06-01T09:33:22.817Z,23.55
2019-06-01T09:35:55.807Z,23.81
2019-06-01T09:38:21.617Z,23.83
2019-06-01T09:40:50.203Z,23.85
2019-06-01T09:43:18.828Z,24.13
2019-06-01T09:45:47.341Z,24.35
2019-06-01T09:48:15.914Z,24.38
2019-06-01T09:50:44.485Z,24.43
2019-06-01T09:53:12.994Z,24.66
2019-06-01T09:55:41.653Z,24.53
2019-06-01T09:58:10.231Z,24.57
2019-06-01T10:00:43.028Z,24.66
2019-06-01T10:03:09.036Z,24.88
2019-06-01T10:05:38.581Z,24.84
2019-06-01T10:08:07.182Z,24.71
2019-06-01T10:10:36.023Z,24.79
2019-06-01T10:13:07.640Z,24.85
2019-06-01T10:15:34.875Z,24.72
2019-06-01T10:18:03.491Z,24.87
2019-06-01T10:20:33.200Z,24.86
2019-06-01T10:23:01.858Z,24.72
2019-06-01T10:25:30.463Z,24.78
2019-06-01T10:27:59.006Z,24.80
2019-06-01T10:30:27.509Z,24.72
2019-06-01T10:32:56.103Z,24.79
2019-06-01T10:35:24.585Z,25.01
2019-06-01T10:37:53.118Z,25.26
2019-06-01T10:40:21.690Z,25.34
2019-06-01T10:42:50.278Z,25.49
2019-06-01T10:45:18.848Z,25.67
2019-06-01T10:47:47.447Z,25.75
2019-06-01T10:50:17.520Z,25.85
2019-06-01T10:52:46.268Z,26.15
2019-06-01T10:55:14.847Z,26.15
2019-06-01T10:57:43.409Z,26.24
2019-06-01T11:00:12.369Z,26.19
2019-06-01T11:02:40.989Z,26.14
2019-06-01T11:05:09.581Z,26.36
2019-06-01T11:07:39.099Z,26.51
2019-06-01T11:10:08.391Z,26.47
2019-06-01T11:12:36.980Z,26.68
2019-06-01T11:15:06.192Z,26.96
2019-06-01T11:17:34.932Z,27.11
2019-06-01T11:20:05.099Z,27.24
2019-06-01T11:22:33.587Z,27.14
2019-06-01T11:25:02.171Z,27.15
2019-06-01T11:27:30.709Z,27.08
2019-06-01T11:29:59.200Z,27.34
2019-06-01T11:32:27.939Z,27.40
2019-06-01T11:34:56.475Z,27.42
2019-06-01T11:37:25.020Z,27.36
2019-06-01T11:39:53.674Z,27.65
2019-06-01T11:42:22.229Z,27.51
2019-06-01T11:44:50.803Z,27.35
2019-06-01T11:47:19.379Z,27.48
2019-06-01T11:49:47.914Z,27.85
2019-06-01T11:52:16.398Z,28.03
2019-06-01T11:54:45.483Z,28.35
2019-06-01T11:57:14.210Z,28.18
2019-06-01T11:59:43.577Z,28.09
2019-06-01T12:02:12.379Z,28.33
2019-06-01T12:04:41.951Z,29.29
2019-06-01T12:07:17.430Z,29.51
2019-06-01T12:09:41.814Z,30.06
2019-06-01T12:12:10.427Z,30.71
2019-06-01T12:14:40.248Z,31.26
2019-06-01T12:17:08.890Z,31.45
2019-06-01T12:19:38.519Z,30.90
2019-06-01T12:22:07.261Z,30.62
2019-06-01T12:24:36.871Z,31.24
2019-06-01T12:27:05.761Z,32.27
2019-06-01T12:29:34.358Z,32.30
2019-06-01T12:32:02.952Z,31.80
2019-06-01T12:34:31.550Z,32.94
2019-06-01T12:37:00.133Z,32.63
2019-06-01T12:39:28.686Z,32.58
2019-06-01T12:41:57.293Z,33.27
2019-06-01T12:44:26.144Z,32.99
2019-06-01T12:46:54.706Z,33.48
2019-06-01T12:49:23.310Z,32.37
2019-06-01T12:51:53.041Z,32.55
2019-06-01T12:54:21.923Z,32.30
2019-06-01T12:56:50.428Z,32.99
2019-06-01T12:59:19.097Z,33.30
2019-06-01T13:01:47.835Z,33.73
2019-06-01T13:04:16.465Z,34.26
2019-06-01T13:06:48.906Z,34.34
2019-06-01T13:09:15.299Z,34.39
2019-06-01T13:11:45.141Z,34.95
2019-06-01T13:14:13.810Z,34.04
2019-06-01T13:16:47.319Z,33.94
2019-06-01T13:19:12.565Z,34.83
2019-06-01T13:21:41.407Z,34.70
2019-06-01T13:24:10.149Z,35.33
2019-06-01T13:26:38.640Z,34.49
2019-06-01T13:29:07.143Z,34.77
2019-06-01T13:31:35.759Z,34.87
2019-06-01T13:34:04.256Z,35.03
2019-06-01T13:36:32.821Z,35.13
2019-06-01T13:39:01.423Z,35.35
2019-06-01T13:41:29.986Z,34.89
2019-06-01T13:43:58.605Z,33.29
2019-06-01T13:46:27.214Z,34.03
2019-06-01T13:48:55.730Z,34.56
2019-06-01T13:51:24.217Z,34.42
2019-06-01T13:53:52.974Z,33.35
2019-06-01T13:56:21.627Z,33.73
2019-06-01T13:58:50.385Z,34.05
2019-06-01T14:01:18.913Z,33.51
2019-06-01T14:03:47.487Z,33.39
2019-06-01T14:06:16.033Z,33.68
2019-06-01T14:08:44.990Z,33.67
2019-06-01T14:11:13.628Z,33.94
2019-06-01T14:13:42.214Z,34.46
2019-06-01T14:16:10.788Z,35.18
2019-06-01T14:18:39.423Z,35.04
2019-06-01T14:21:08.124Z,35.13
2019-06-01T14:23:36.662Z,35.44
2019-06-01T14:26:05.364Z,34.20
2019-06-01T14:28:33.973Z,33.85
2019-06-01T14:31:02.523Z,33.82
2019-06-01T14:33:31.253Z,34.26
2019-06-01T14:35:59.770Z,34.45
2019-06-01T14:38:45.674Z,34.37
2019-06-01T14:40:58.698Z,34.81
2019-06-01T14:43:27.298Z,34.98
2019-06-01T14:45:56.005Z,34.26
2019-06-01T14:48:24.576Z,34.43
2019-06-01T14:50:53.814Z,35.27
2019-06-01T14:53:22.561Z,35.15
2019-06-01T14:55:51.708Z,35.06
2019-06-01T14:58:20.338Z,34.88
2019-06-01T15:00:50.234Z,34.96
2019-06-01T15:03:18.912Z,35.53
2019-06-01T15:05:48.161Z,35.48
2019-06-01T15:08:16.789Z,35.26
2019-06-01T15:10:45.423Z,33.75
2019-06-01T15:13:14.005Z,33.15
2019-06-01T15:15:42.490Z,32.59
2019-06-01T15:18:11.233Z,32.73
2019-06-01T15:20:39.771Z,32.96
2019-06-01T15:23:08.262Z,33.44
2019-06-01T15:25:36.861Z,34.19
2019-06-01T15:28:05.450Z,34.80
2019-06-01T15:30:34.133Z,33.08
2019-06-01T15:33:03.373Z,32.85
2019-06-01T15:35:32.043Z,32.47
2019-06-01T15:38:02.768Z,32.73
2019-06-01T15:40:30.912Z,32.75
2019-06-01T15:42:59.507Z,33.01
2019-06-01T15:45:28.097Z,33.79
2019-06-01T15:47:57.804Z,34.71
2019-06-01T15:50:26.489Z,34.14
2019-06-01T15:52:55.219Z,33.86
2019-06-01T15:55:23.767Z,34.51
2019-06-01T15:57:52.375Z,35.36
2019-06-01T16:00:22.590Z,35.79
2019-06-01T16:02:51.223Z,35.68
2019-06-01T16:05:19.804Z,35.98
2019-06-01T16:07:48.344Z,36.14
2019-06-01T16:10:16.874Z,36.31
2019-06-01T16:12:45.409Z,36.41
2019-06-01T16:15:14.063Z,36.48
2019-06-01T16:17:42.559Z,35.64
2019-06-01T16:20:11.087Z,35.30
2019-06-01T16:22:39.649Z,36.02
2019-06-01T16:25:08.190Z,35.84
2019-06-01T16:27:37.162Z,35.43
2019-06-01T16:30:08.508Z,35.31
2019-06-01T16:32:39.576Z,35.04
2019-06-01T16:35:07.291Z,34.88
2019-06-01T16:37:35.794Z,35.07
2019-06-01T16:40:10.025Z,35.37
2019-06-01T16:42:37.123Z,34.62
2019-06-01T16:45:06.747Z,34.43
2019-06-01T16:47:35.364Z,34.41
2019-06-01T16:50:07.308Z,34.36
2019-06-01T16:52:35.809Z,34.14
2019-06-01T16:55:07.105Z,33.23
2019-06-01T16:57:35.801Z,33.15
2019-06-01T17:00:07.183Z,33.20
2019-06-01T17:02:35.878Z,32.52
2019-06-01T17:05:05.335Z,32.14
2019-06-01T17:07:33.966Z,31.76
2019-06-01T17:10:19.506Z,31.18
2019-06-01T17:12:32.660Z,31.00
2019-06-01T17:15:01.183Z,30.89
2019-06-01T17:17:29.836Z,30.50
2019-06-01T17:19:59.016Z,30.49
2019-06-01T17:22:27.598Z,30.19
2019-06-01T17:24:56.134Z,29.94
2019-06-01T17:27:24.682Z,29.62
2019-06-01T17:29:53.305Z,29.45
2019-06-01T17:32:24.493Z,29.28
2019-06-01T17:34:52.074Z,29.01
2019-06-01T17:37:20.733Z,28.78
2019-06-01T17:39:49.282Z,28.82
2019-06-01T17:42:17.819Z,29.01
2019-06-01T17:44:46.331Z,28.89
2019-06-01T17:47:14.907Z,28.68
2019-06-01T17:49:43.423Z,28.54
2019-06-01T17:52:11.974Z,28.40
2019-06-01T17:54:40.621Z,28.52
2019-06-01T17:57:09.300Z,28.49
2019-06-01T17:59:37.915Z,28.36
2019-06-01T18:02:07.710Z,28.28
2019-06-01T18:04:36.507Z,28.18
2019-06-01T18:07:05.750Z,28.03
2019-06-01T18:09:34.563Z,27.93
2019-06-01T18:12:03.939Z,28.15
2019-06-01T18:14:32.786Z,28.11
2019-06-01T18:17:02.116Z,27.78
2019-06-01T18:19:30.660Z,27.86
2019-06-01T18:21:59.241Z,27.74
2019-06-01T18:24:27.789Z,27.76
2019-06-01T18:26:56.411Z,27.59
2019-06-01T18:29:25.301Z,27.53
2019-06-01T18:31:53.977Z,27.33
2019-06-01T18:34:22.571Z,27.26
2019-06-01T18:36:51.135Z,27.19
2019-06-01T18:39:20.483Z,26.98
2019-06-01T18:41:49.022Z,26.84
2019-06-01T18:44:17.836Z,26.70
2019-06-01T18:46:46.639Z,26.81
2019-06-01T18:49:18.110Z,26.74
2019-06-01T18:51:45.851Z,26.70
2019-06-01T18:54:15.167Z,26.57
2019-06-01T18:56:43.714Z,26.65
2019-06-01T18:59:12.799Z,26.44
2019-06-01T19:01:41.894Z,26.37
2019-06-01T19:04:11.844Z,26.37
2019-06-01T19:06:41.111Z,26.28
2019-06-01T19:09:13.675Z,26.26
2019-06-01T19:11:42.958Z,26.22
2019-06-01T19:14:11.906Z,26.13
2019-06-01T19:16:40.508Z,26.08
2019-06-01T19:19:12.528Z,25.99
2019-06-01T19:21:43.163Z,25.91
2019-06-01T19:24:12.644Z,25.73
2019-06-01T19:26:41.336Z,25.72
2019-06-01T19:29:12.867Z,25.66
2019-06-01T19:31:41.587Z,25.59
2019-06-01T19:34:10.951Z,25.53
2019-06-01T19:36:39.618Z,25.45
2019-06-01T19:39:09.210Z,25.39
2019-06-01T19:41:44.621Z,25.25
2019-06-01T19:44:09.362Z,25.20
2019-06-01T19:46:40.473Z,25.11
2019-06-01T19:49:10.717Z,25.06
2019-06-01T19:51:40.539Z,24.94
2019-06-01T19:54:10.642Z,24.89
2019-06-01T19:56:39.880Z,24.82
2019-06-01T19:59:10.013Z,24.78
2019-06-01T20:01:39.033Z,24.72
2019-06-01T20:04:14.353Z,24.64
2019-06-01T20:06:43.128Z,24.57
2019-06-01T20:09:12.973Z,24.51
2019-06-01T20:11:41.737Z,24.49
2019-06-01T20:14:10.789Z,24.43
2019-06-01T20:16:39.982Z,24.38
2019-06-01T20:19:11.367Z,24.31
2019-06-01T20:21:39.509Z,24.23
2019-06-01T20:24:08.092Z,24.23
2019-06-01T20:26:44.569Z,24.15
2019-06-01T20:29:07.829Z,24.14
2019-06-01T20:31:36.958Z,24.07
2019-06-01T20:34:05.678Z,23.98
2019-06-01T20:36:34.841Z,23.97
2019-06-01T20:39:04.706Z,23.95
2019-06-01T20:41:33.596Z,23.91
2019-06-01T20:44:02.209Z,23.83
2019-06-01T20:46:31.381Z,23.78
2019-06-01T20:49:01.070Z,23.72
2019-06-01T20:51:32.641Z,23.70
2019-06-01T20:54:01.868Z,23.67
2019-06-01T20:56:30.411Z,23.57
2019-06-01T20:58:58.937Z,23.51
2019-06-01T21:01:27.558Z,23.47
2019-06-01T21:03:56.248Z,23.42
2019-06-01T21:06:24.784Z,23.32
2019-06-01T21:08:53.473Z,23.30
2019-06-01T21:11:22.427Z,23.24
2019-06-01T21:13:51.262Z,23.22
2019-06-01T21:16:20.305Z,23.16
2019-06-01T21:18:49.521Z,23.10
2019-06-01T21:21:18.307Z,23.07
2019-06-01T21:23:46.828Z,23.05
2019-06-01T21:26:16.715Z,22.95
2019-06-01T21:28:45.409Z,22.92
2019-06-01T21:31:14.949Z,22.88
2019-06-01T21:33:43.596Z,22.83
2019-06-01T21:36:12.137Z,22.85
2019-06-01T21:38:40.737Z,22.78
2019-06-01T21:41:09.216Z,22.70
2019-06-01T21:43:38.262Z,22.64
2019-06-01T21:46:06.853Z,22.62
2019-06-01T21:48:35.331Z,22.59
2019-06-01T21:51:03.974Z,22.50
2019-06-01T21:53:32.779Z,22.46
2019-06-01T21:56:01.262Z,22.42
2019-06-01T21:58:29.939Z,22.36
2019-06-01T22:00:58.581Z,22.35
2019-06-01T22:03:27.405Z,22.33
2019-06-01T22:05:56.121Z,22.27
2019-06-01T22:08:25.345Z,22.27
2019-06-01T22:10:54.037Z,22.19
2019-06-01T22:13:25.345Z,22.15
2019-06-01T22:15:53.023Z,22.13
2019-06-01T22:18:21.654Z,22.11
2019-06-01T22:20:50.205Z,22.06
2019-06-01T22:23:19.705Z,22.00
2019-06-01T22:25:48.264Z,21.97
2019-06-01T22:28:18.067Z,21.91
2019-06-01T22:30:46.636Z,21.86
2019-06-01T22:33:15.309Z,21.86
2019-06-01T22:35:43.796Z,21.84
2019-06-01T22:38:12.305Z,21.83
2019-06-01T22:40:40.828Z,21.79
2019-06-01T22:43:09.306Z,21.71
2019-06-01T22:45:37.789Z,21.68
2019-06-01T22:48:06.378Z,21.66
2019-06-01T22:50:34.924Z,21.64
2019-06-01T22:53:03.396Z,21.60
2019-06-01T22:55:32.591Z,21.54
2019-06-01T22:58:01.173Z,21.48
2019-06-01T23:00:29.891Z,21.45
2019-06-01T23:02:58.478Z,21.44
2019-06-01T23:05:27.078Z,21.35
2019-06-01T23:07:55.697Z,21.32
2019-06-01T23:10:29.571Z,21.26
2019-06-01T23:12:54.530Z,21.24
2019-06-01T23:15:23.632Z,21.25
2019-06-01T23:17:52.207Z,21.21
2019-06-01T23:20:21.726Z,21.15
2019-06-01T23:22:50.291Z,21.14
2019-06-01T23:25:18.793Z,21.12
2019-06-01T23:27:47.277Z,21.13
2019-06-01T23:30:15.819Z,21.05
2019-06-01T23:32:44.294Z,21.03
2019-06-01T23:35:12.790Z,20.98
2019-06-01T23:37:41.318Z,20.93
2019-06-01T23:40:09.814Z,20.87
2019-06-01T23:42:38.399Z,20.84
2019-06-01T23:45:07.365Z,20.83
2019-06-01T23:47:35.873Z,20.78
2019-06-01T23:50:05.134Z,20.75
2019-06-01T23:52:33.872Z,20.72
2019-06-01T23:55:02.438Z,20.70
2019-06-01T23:57:32.045Z,20.68
